createdAt,value
2018-05-16T00:00:03.012Z,1000.61
2018-05-16T00:01:03.033Z,1000.61
2018-05-16T00:02:03.061Z,1000.56
2018-05-16T00:03:03.080Z,1000.57
2018-05-16T00:04:03.096Z,1000.58
2018-05-16T00:05:03.119Z,1000.57
2018-05-16T00:06:03.142Z,1000.58
2018-05-16T00:07:03.164Z,1000.57
2018-05-16T00:08:03.194Z,1000.6
2018-05-16T00:09:03.206Z,1000.59
2018-05-16T00:10:03.220Z,1000.58
2018-05-16T00:11:03.241Z,1000.57
2018-05-16T00:12:03.270Z,1000.58
2018-05-16T00:13:03.289Z,1000.58
2018-05-16T00:14:03.309Z,1000.61
2018-05-16T00:15:03.324Z,1000.59
2018-05-16T00:16:03.347Z,1000.63
2018-05-16T00:17:03.377Z,1000.63
2018-05-16T00:18:03.394Z,1000.65
2018-05-16T00:19:03.413Z,1000.64
2018-05-16T00:20:03.429Z,1000.62
2018-05-16T00:21:03.455Z,1000.6
2018-05-16T00:22:03.474Z,1000.57
2018-05-16T00:23:03.498Z,1000.59
2018-05-16T00:24:03.512Z,1000.56
2018-05-16T00:25:03.537Z,1000.55
2018-05-16T00:26:03.558Z,1000.55
2018-05-16T00:27:03.578Z,1000.55
2018-05-16T00:28:03.594Z,1000.57
2018-05-16T00:29:03.614Z,1000.58
2018-05-16T00:30:03.640Z,1000.58
2018-05-16T00:31:03.656Z,1000.55
2018-05-16T00:32:03.681Z,1000.6
2018-05-16T00:33:03.702Z,1000.61
2018-05-16T00:34:03.719Z,1000.63
2018-05-16T00:35:03.745Z,1000.62
2018-05-16T00:36:03.765Z,1000.61
2018-05-16T00:37:03.784Z,1000.6
2018-05-16T00:38:03.801Z,1000.61
2018-05-16T00:39:03.821Z,1000.58
2018-05-16T00:40:03.842Z,1000.56
2018-05-16T00:41:03.867Z,1000.56
2018-05-16T00:42:03.905Z,1000.55
2018-05-16T00:43:03.904Z,1000.55
2018-05-16T00:44:03.928Z,1000.55
2018-05-16T00:45:03.950Z,1000.53
2018-05-16T00:46:03.976Z,1000.52
2018-05-16T00:47:03.989Z,1000.5
2018-05-16T00:48:04.014Z,1000.5
2018-05-16T00:49:04.109Z,1000.5
2018-05-16T00:50:04.052Z,1000.49
2018-05-16T00:51:04.074Z,1000.46
2018-05-16T00:52:04.095Z,1000.45
2018-05-16T00:53:04.115Z,1000.46
2018-05-16T00:54:04.134Z,1000.47
2018-05-16T00:55:04.156Z,1000.45
2018-05-16T00:56:04.177Z,1000.43
2018-05-16T00:57:04.196Z,1000.43
2018-05-16T00:58:04.218Z,1000.4
2018-05-16T00:59:04.241Z,1000.41
2018-05-16T01:00:04.257Z,1000.4
2018-05-16T01:01:04.279Z,1000.43
2018-05-16T01:02:04.298Z,1000.43
2018-05-16T01:03:04.314Z,1000.41
2018-05-16T01:04:04.335Z,1000.4
2018-05-16T01:05:04.356Z,1000.42
2018-05-16T01:06:04.381Z,1000.39
2018-05-16T01:07:04.399Z,1000.41
2018-05-16T01:08:04.417Z,1000.43
2018-05-16T01:09:04.436Z,1000.42
2018-05-16T01:10:04.456Z,1000.44
2018-05-16T01:11:04.481Z,1000.46
2018-05-16T01:12:04.498Z,1000.49
2018-05-16T01:13:04.523Z,1000.47
2018-05-16T01:14:04.538Z,1000.45
2018-05-16T01:15:04.565Z,1000.51
2018-05-16T01:16:04.579Z,1000.53
2018-05-16T01:17:04.599Z,1000.51
2018-05-16T01:18:04.620Z,1000.49
2018-05-16T01:19:04.647Z,1000.56
2018-05-16T01:20:04.665Z,1000.54
2018-05-16T01:21:04.681Z,1000.58
2018-05-16T01:22:04.702Z,1000.56
2018-05-16T01:23:04.727Z,1000.5
2018-05-16T01:24:04.746Z,1000.48
2018-05-16T01:25:04.762Z,1000.47
2018-05-16T01:26:04.788Z,1000.44
2018-05-16T01:27:04.803Z,1000.41
2018-05-16T01:28:04.828Z,1000.4
2018-05-16T01:29:04.849Z,1000.4
2018-05-16T01:30:04.865Z,1000.38
2018-05-16T01:31:04.884Z,1000.44
2018-05-16T01:32:04.913Z,1000.42
2018-05-16T01:33:04.926Z,1000.42
2018-05-16T01:34:04.951Z,1000.44
2018-05-16T01:35:04.967Z,1000.41
2018-05-16T01:36:04.991Z,1000.37
2018-05-16T01:37:05.007Z,1000.38
2018-05-16T01:38:05.033Z,1000.33
2018-05-16T01:39:05.046Z,1000.34
2018-05-16T01:40:05.137Z,1000.36
2018-05-16T01:41:05.092Z,1000.34
2018-05-16T01:42:05.112Z,1000.33
2018-05-16T01:43:05.129Z,1000.35
2018-05-16T01:44:05.153Z,1000.33
2018-05-16T01:45:05.173Z,1000.33
2018-05-16T01:46:05.189Z,1000.27
2018-05-16T01:47:05.214Z,1000.28
2018-05-16T01:48:05.238Z,1000.28
2018-05-16T01:49:05.248Z,1000.3
2018-05-16T01:50:05.270Z,1000.29
2018-05-16T01:51:05.289Z,1000.28
2018-05-16T01:52:05.315Z,1000.33
2018-05-16T01:53:05.329Z,1000.37
2018-05-16T01:54:05.350Z,1000.38
2018-05-16T01:55:05.376Z,1000.36
2018-05-16T01:56:05.391Z,1000.32
2018-05-16T01:57:05.418Z,1000.33
2018-05-16T01:58:05.431Z,1000.35
2018-05-16T01:59:05.456Z,1000.34
2018-05-16T02:00:05.476Z,1000.32
2018-05-16T02:01:05.490Z,1000.31
2018-05-16T02:02:05.513Z,1000.3
2018-05-16T02:03:05.537Z,1000.3
2018-05-16T02:04:05.558Z,1000.27
2018-05-16T02:05:05.576Z,1000.26
2018-05-16T02:06:05.595Z,1000.25
2018-05-16T02:07:05.611Z,1000.24
2018-05-16T02:08:05.630Z,1000.21
2018-05-16T02:09:05.651Z,1000.26
2018-05-16T02:10:05.678Z,1000.27
2018-05-16T02:11:05.698Z,1000.27
2018-05-16T02:12:05.716Z,1000.31
2018-05-16T02:13:05.738Z,1000.34
2018-05-16T02:14:05.756Z,1000.29
2018-05-16T02:15:05.777Z,1000.33
2018-05-16T02:16:05.798Z,1000.35
2018-05-16T02:17:05.825Z,1000.33
2018-05-16T02:18:05.833Z,1000.35
2018-05-16T02:19:05.859Z,1000.34
2018-05-16T02:20:05.887Z,1000.3
2018-05-16T02:21:05.898Z,1000.3
2018-05-16T02:22:05.913Z,1000.25
2018-05-16T02:23:05.939Z,1000.22
2018-05-16T02:24:05.955Z,1000.23
2018-05-16T02:25:05.979Z,1000.22
2018-05-16T02:26:05.995Z,1000.2
2018-05-16T02:27:06.019Z,1000.21
2018-05-16T02:28:06.035Z,1000.19
2018-05-16T02:29:06.059Z,1000.14
2018-05-16T02:30:06.087Z,1000.16
2018-05-16T02:31:06.100Z,1000.17
2018-05-16T02:32:06.127Z,1000.16
2018-05-16T02:33:06.139Z,1000.14
2018-05-16T02:34:06.160Z,1000.16
2018-05-16T02:35:06.196Z,1000.16
2018-05-16T02:36:06.200Z,1000.19
2018-05-16T02:37:06.218Z,1000.21
2018-05-16T02:38:06.245Z,1000.2
2018-05-16T02:39:06.256Z,1000.24
2018-05-16T02:40:06.284Z,1000.22
2018-05-16T02:41:06.310Z,1000.23
2018-05-16T02:42:06.318Z,1000.23
2018-05-16T02:43:06.341Z,1000.26
2018-05-16T02:44:06.355Z,1000.31
2018-05-16T02:45:06.379Z,1000.3
2018-05-16T02:46:06.402Z,1000.33
2018-05-16T02:47:06.416Z,1000.32
2018-05-16T02:48:06.436Z,1000.33
2018-05-16T02:49:06.466Z,1000.35
2018-05-16T02:50:06.482Z,1000.33
2018-05-16T02:51:06.507Z,1000.36
2018-05-16T02:52:06.523Z,1000.37
2018-05-16T02:53:06.549Z,1000.39
2018-05-16T02:54:06.562Z,1000.4
2018-05-16T02:55:06.581Z,1000.45
2018-05-16T02:56:06.603Z,1000.45
2018-05-16T02:57:06.618Z,1000.48
2018-05-16T02:58:06.638Z,1000.49
2018-05-16T02:59:06.657Z,1000.47
2018-05-16T03:00:06.684Z,1000.47
2018-05-16T03:01:06.697Z,1000.46
2018-05-16T03:02:06.718Z,1000.46
2018-05-16T03:03:06.742Z,1000.48
2018-05-16T03:04:06.762Z,1000.42
2018-05-16T03:05:06.779Z,1000.48
2018-05-16T03:06:06.799Z,1000.5
2018-05-16T03:07:06.826Z,1000.5
2018-05-16T03:08:06.860Z,1000.49
2018-05-16T03:09:06.866Z,1000.5
2018-05-16T03:10:06.879Z,1000.52
2018-05-16T03:11:06.900Z,1000.45
2018-05-16T03:12:06.925Z,1000.44
2018-05-16T03:13:06.938Z,1000.47
2018-05-16T03:14:06.964Z,1000.44
2018-05-16T03:15:06.987Z,1000.49
2018-05-16T03:16:07.003Z,1000.49
2018-05-16T03:17:07.024Z,1000.48
2018-05-16T03:18:07.049Z,1000.49
2018-05-16T03:19:07.064Z,1000.51
2018-05-16T03:20:07.080Z,1000.48
2018-05-16T03:21:07.105Z,1000.51
2018-05-16T03:22:07.199Z,1000.48
2018-05-16T03:23:07.146Z,1000.5
2018-05-16T03:24:07.160Z,1000.55
2018-05-16T03:25:07.180Z,1000.53
2018-05-16T03:26:07.250Z,1000.54
2018-05-16T03:27:07.223Z,1000.55
2018-05-16T03:28:07.240Z,1000.56
2018-05-16T03:29:07.265Z,1000.58
2018-05-16T03:30:07.287Z,1000.57
2018-05-16T03:31:07.301Z,1000.54
2018-05-16T03:32:07.321Z,1000.56
2018-05-16T03:33:07.346Z,1000.54
2018-05-16T03:34:07.372Z,1000.54
2018-05-16T03:35:07.381Z,1000.56
2018-05-16T03:36:07.452Z,1000.53
2018-05-16T03:37:07.421Z,1000.54
2018-05-16T03:38:07.440Z,1000.59
2018-05-16T03:39:07.461Z,1000.6
2018-05-16T03:40:07.487Z,1000.56
2018-05-16T03:41:07.508Z,1000.55
2018-05-16T03:42:07.521Z,1000.5
2018-05-16T03:43:07.542Z,1000.51
2018-05-16T03:44:07.563Z,1000.49
2018-05-16T03:45:07.587Z,1000.51
2018-05-16T03:46:07.607Z,1000.53
2018-05-16T03:47:07.622Z,1000.46
2018-05-16T03:48:07.641Z,1000.48
2018-05-16T03:49:07.663Z,1000.49
2018-05-16T03:50:07.685Z,1000.48
2018-05-16T03:51:07.703Z,1000.48
2018-05-16T03:52:07.727Z,1000.48
2018-05-16T03:53:07.747Z,1000.47
2018-05-16T03:54:07.766Z,1000.46
2018-05-16T03:55:07.783Z,1000.44
2018-05-16T03:56:07.807Z,1000.45
2018-05-16T03:57:07.830Z,1000.47
2018-05-16T03:58:07.847Z,1000.45
2018-05-16T03:59:07.868Z,1000.47
2018-05-16T04:00:07.886Z,1000.48
2018-05-16T04:01:07.907Z,1000.46
2018-05-16T04:02:07.928Z,1000.44
2018-05-16T04:03:07.949Z,1000.45
2018-05-16T04:04:07.963Z,1000.46
2018-05-16T04:05:07.988Z,1000.41
2018-05-16T04:06:08.008Z,1000.44
2018-05-16T04:07:08.026Z,1000.43
2018-05-16T04:08:08.043Z,1000.42
2018-05-16T04:09:08.063Z,1000.4
2018-05-16T04:10:08.090Z,1000.43
2018-05-16T04:11:08.102Z,1000.42
2018-05-16T04:12:08.128Z,1000.46
2018-05-16T04:13:08.144Z,1000.45
2018-05-16T04:14:08.170Z,1000.44
2018-05-16T04:15:08.183Z,1000.48
2018-05-16T04:16:08.204Z,1000.48
2018-05-16T04:17:08.225Z,1000.47
2018-05-16T04:18:08.250Z,1000.47
2018-05-16T04:19:08.269Z,1000.52
2018-05-16T04:20:08.284Z,1000.5
2018-05-16T04:21:08.310Z,1000.5
2018-05-16T04:22:08.326Z,1000.5
2018-05-16T04:23:08.350Z,1000.49
2018-05-16T04:24:08.371Z,1000.47
2018-05-16T04:25:08.386Z,1000.46
2018-05-16T04:26:08.406Z,1000.43
2018-05-16T04:27:08.435Z,1000.38
2018-05-16T04:28:08.453Z,1000.4
2018-05-16T04:29:08.466Z,1000.41
2018-05-16T04:30:08.492Z,1000.43
2018-05-16T04:31:08.507Z,1000.4
2018-05-16T04:32:08.533Z,1000.4
2018-05-16T04:33:08.546Z,1000.4
2018-05-16T04:34:08.571Z,1000.36
2018-05-16T04:35:08.592Z,1000.37
2018-05-16T04:36:08.613Z,1000.41
2018-05-16T04:37:08.634Z,1000.4
2018-05-16T04:38:08.648Z,1000.36
2018-05-16T04:39:08.668Z,1000.41
2018-05-16T04:40:08.699Z,1000.37
2018-05-16T04:41:08.709Z,1000.38
2018-05-16T04:42:08.733Z,1000.37
2018-05-16T04:43:08.753Z,1000.37
2018-05-16T04:44:08.776Z,1000.35
2018-05-16T04:45:08.797Z,1000.38
2018-05-16T04:46:08.817Z,1000.36
2018-05-16T04:47:08.828Z,1000.4
2018-05-16T04:48:08.849Z,1000.37
2018-05-16T04:49:08.869Z,1000.34
2018-05-16T04:50:08.890Z,1000.37
2018-05-16T04:51:08.910Z,1000.4
2018-05-16T04:52:08.929Z,1000.39
2018-05-16T04:53:08.955Z,1000.45
2018-05-16T04:54:08.975Z,1000.43
2018-05-16T04:55:08.995Z,1000.46
2018-05-16T04:56:09.015Z,1000.44
2018-05-16T04:57:09.036Z,1000.49
2018-05-16T04:58:09.057Z,1000.48
2018-05-16T04:59:09.076Z,1000.46
2018-05-16T05:00:09.091Z,1000.5
2018-05-16T05:01:09.112Z,1000.5
2018-05-16T05:02:09.131Z,1000.49
2018-05-16T05:03:09.152Z,1000.52
2018-05-16T05:04:09.177Z,1000.46
2018-05-16T05:05:09.198Z,1000.53
2018-05-16T05:06:09.217Z,1000.5
2018-05-16T05:07:09.237Z,1000.53
2018-05-16T05:08:09.253Z,1000.52
2018-05-16T05:09:09.276Z,1000.57
2018-05-16T05:10:09.297Z,1000.56
2018-05-16T05:11:09.322Z,1000.55
2018-05-16T05:12:09.340Z,1000.53
2018-05-16T05:13:09.355Z,1000.55
2018-05-16T05:14:09.376Z,1000.55
2018-05-16T05:15:09.394Z,1000.56
2018-05-16T05:16:09.421Z,1000.57
2018-05-16T05:17:09.443Z,1000.56
2018-05-16T05:18:09.541Z,1000.56
2018-05-16T05:19:09.478Z,1000.55
2018-05-16T05:20:09.496Z,1000.56
2018-05-16T05:21:09.516Z,1000.57
2018-05-16T05:22:09.554Z,1000.57
2018-05-16T05:23:09.557Z,1000.59
2018-05-16T05:24:09.670Z,1000.56
2018-05-16T05:25:09.602Z,1000.52
2018-05-16T05:26:09.622Z,1000.59
2018-05-16T05:27:09.640Z,1000.52
2018-05-16T05:28:09.662Z,1000.57
2018-05-16T05:29:09.678Z,1000.59
2018-05-16T05:30:09.699Z,1000.63
2018-05-16T05:31:09.725Z,1000.6
2018-05-16T05:32:09.744Z,1000.59
2018-05-16T05:33:09.759Z,1000.59
2018-05-16T05:34:09.780Z,1000.6
2018-05-16T05:35:09.806Z,1000.61
2018-05-16T05:36:09.826Z,1000.6
2018-05-16T05:37:09.847Z,1000.59
2018-05-16T05:38:09.862Z,1000.61
2018-05-16T05:39:09.892Z,1000.59
2018-05-16T05:40:09.910Z,1000.56
2018-05-16T05:41:09.927Z,1000.6
2018-05-16T05:42:09.943Z,1000.57
2018-05-16T05:43:09.977Z,1000.56
2018-05-16T05:44:09.989Z,1000.53
2018-05-16T05:45:10.005Z,1000.6
2018-05-16T05:46:10.024Z,1000.54
2018-05-16T05:47:10.050Z,1000.54
2018-05-16T05:48:10.066Z,1000.53
2018-05-16T05:49:10.108Z,1000.52
2018-05-16T05:50:10.105Z,1000.52
2018-05-16T05:51:10.138Z,1000.51
2018-05-16T05:52:10.146Z,1000.53
2018-05-16T05:53:10.174Z,1000.53
2018-05-16T05:54:10.196Z,1000.55
2018-05-16T05:55:10.208Z,1000.57
2018-05-16T05:56:10.234Z,1000.58
2018-05-16T05:57:10.253Z,1000.59
2018-05-16T05:58:10.268Z,1000.62
2018-05-16T05:59:10.297Z,1000.59
2018-05-16T06:00:10.324Z,1000.63
2018-05-16T06:01:10.332Z,1000.65
2018-05-16T06:02:10.350Z,1000.66
2018-05-16T06:03:10.371Z,1000.7
2018-05-16T06:04:10.397Z,1000.68
2018-05-16T06:05:10.412Z,1000.69
2018-05-16T06:06:10.436Z,1000.71
2018-05-16T06:07:10.459Z,1000.74
2018-05-16T06:08:10.475Z,1000.75
2018-05-16T06:09:10.494Z,1000.77
2018-05-16T06:10:10.519Z,1000.84
2018-05-16T06:11:10.541Z,1000.84
2018-05-16T06:12:10.560Z,1000.86
2018-05-16T06:13:10.582Z,1000.88
2018-05-16T06:14:10.602Z,1000.89
2018-05-16T06:15:10.617Z,1000.91
2018-05-16T06:16:10.639Z,1000.84
2018-05-16T06:17:10.664Z,1000.86
2018-05-16T06:18:10.686Z,1000.87
2018-05-16T06:19:10.705Z,1000.87
2018-05-16T06:20:10.727Z,1000.87
2018-05-16T06:21:10.754Z,1000.83
2018-05-16T06:22:10.767Z,1000.87
2018-05-16T06:23:10.782Z,1000.83
2018-05-16T06:24:10.803Z,1000.8
2018-05-16T06:25:10.831Z,1000.84
2018-05-16T06:26:10.850Z,1000.8
2018-05-16T06:27:10.917Z,1000.81
2018-05-16T06:28:10.889Z,1000.8
2018-05-16T06:29:10.907Z,1000.81
2018-05-16T06:30:10.926Z,1000.8
2018-05-16T06:31:10.952Z,1000.78
2018-05-16T06:32:10.968Z,1000.8
2018-05-16T06:33:11.000Z,1000.73
2018-05-16T06:34:11.011Z,1000.75
2018-05-16T06:35:11.043Z,1000.77
2018-05-16T06:36:11.055Z,1000.78
2018-05-16T06:37:11.070Z,1000.81
2018-05-16T06:38:11.092Z,1000.81
2018-05-16T06:39:11.123Z,1000.84
2018-05-16T06:40:11.144Z,1000.83
2018-05-16T06:41:11.157Z,1000.84
2018-05-16T06:42:11.179Z,1000.85
2018-05-16T06:43:11.198Z,1000.83
2018-05-16T06:44:11.215Z,1000.84
2018-05-16T06:45:11.239Z,1000.84
2018-05-16T06:46:11.256Z,1000.83
2018-05-16T06:47:11.283Z,1000.85
2018-05-16T06:48:11.302Z,1000.85
2018-05-16T06:49:11.325Z,1000.86
2018-05-16T06:50:11.343Z,1000.84
2018-05-16T06:51:11.361Z,1000.88
2018-05-16T06:52:11.379Z,1000.87
2018-05-16T06:53:11.401Z,1000.9
2018-05-16T06:54:11.493Z,1000.9
2018-05-16T06:55:11.448Z,1000.91
2018-05-16T06:56:11.462Z,1000.89
2018-05-16T06:57:11.492Z,1000.88
2018-05-16T06:58:11.510Z,1000.84
2018-05-16T06:59:11.528Z,1000.83
2018-05-16T07:00:11.551Z,1000.86
2018-05-16T07:01:11.566Z,1000.89
2018-05-16T07:02:11.591Z,1000.9
2018-05-16T07:03:11.609Z,1000.9
2018-05-16T07:04:11.741Z,1000.9
2018-05-16T07:05:11.654Z,1000.93
2018-05-16T07:06:11.674Z,1000.96
2018-05-16T07:07:11.691Z,1000.95
2018-05-16T07:08:11.711Z,1000.96
2018-05-16T07:09:11.732Z,1000.99
2018-05-16T07:10:11.753Z,1001.04
2018-05-16T07:11:11.773Z,1001.06
2018-05-16T07:12:11.799Z,1001.09
2018-05-16T07:13:11.871Z,1001.04
2018-05-16T07:14:11.835Z,1001.04
2018-05-16T07:15:11.861Z,1001.03
2018-05-16T07:16:11.881Z,1001.05
2018-05-16T07:17:11.898Z,1001.05
2018-05-16T07:18:11.923Z,1001.05
2018-05-16T07:19:11.945Z,1001.02
2018-05-16T07:20:11.965Z,1000.97
2018-05-16T07:21:11.982Z,1001
2018-05-16T07:22:12.007Z,1001.01
2018-05-16T07:23:12.024Z,1000.99
2018-05-16T07:24:12.046Z,1001.02
2018-05-16T07:25:12.064Z,1001.02
2018-05-16T07:26:12.086Z,1001.05
2018-05-16T07:27:12.109Z,1001.06
2018-05-16T07:28:12.127Z,1001.15
2018-05-16T07:29:12.153Z,1001.15
2018-05-16T07:30:12.173Z,1001.15
2018-05-16T07:31:12.194Z,1001.14
2018-05-16T07:32:12.252Z,1001.13
2018-05-16T07:33:12.235Z,1001.12
2018-05-16T07:34:12.253Z,1001.1
2018-05-16T07:35:12.274Z,1001.12
2018-05-16T07:36:12.294Z,1001.12
2018-05-16T07:37:12.320Z,1001.13
2018-05-16T07:38:12.337Z,1001.12
2018-05-16T07:39:12.432Z,1001.08
2018-05-16T07:40:12.383Z,1001.02
2018-05-16T07:41:12.470Z,1001.05
2018-05-16T07:42:12.420Z,1001.03
2018-05-16T07:43:12.445Z,1001.03
2018-05-16T07:44:12.462Z,1001.04
2018-05-16T07:45:12.485Z,1001.02
2018-05-16T07:46:12.507Z,1001.01
2018-05-16T07:47:12.537Z,1001.04
2018-05-16T07:48:12.550Z,1001.04
2018-05-16T07:49:12.570Z,1001.05
2018-05-16T07:50:12.592Z,1001.03
2018-05-16T07:51:12.702Z,1001
2018-05-16T07:52:12.630Z,1000.97
2018-05-16T07:53:12.651Z,1001
2018-05-16T07:54:12.704Z,1001
2018-05-16T07:55:12.702Z,1001.02
2018-05-16T07:56:12.734Z,1001.06
2018-05-16T07:57:12.740Z,1001.07
2018-05-16T07:58:12.755Z,1001.09
2018-05-16T07:59:12.777Z,1001.07
2018-05-16T08:00:12.804Z,1001.13
2018-05-16T08:01:12.817Z,1001.13
2018-05-16T08:02:12.846Z,1001.08
2018-05-16T08:03:12.902Z,1001.08
2018-05-16T08:04:12.883Z,1001.1
2018-05-16T08:05:12.907Z,1001.15
2018-05-16T08:06:12.927Z,1001.2
2018-05-16T08:07:12.945Z,1001.15
2018-05-16T08:08:12.966Z,1001.19
2018-05-16T08:09:13.040Z,1001.21
2018-05-16T08:10:13.015Z,1001.18
2018-05-16T08:11:13.029Z,1001.2
2018-05-16T08:12:13.116Z,1001.19
2018-05-16T08:13:13.075Z,1001.16
2018-05-16T08:14:13.096Z,1001.2
2018-05-16T08:15:13.120Z,1001.2
2018-05-16T08:16:13.138Z,1001.18
2018-05-16T08:17:13.158Z,1001.13
2018-05-16T08:18:13.177Z,1001.09
2018-05-16T08:19:13.198Z,1001.07
2018-05-16T08:20:13.225Z,1001.03
2018-05-16T08:21:13.238Z,1001
2018-05-16T08:22:13.266Z,1000.96
2018-05-16T08:23:13.284Z,1000.96
2018-05-16T08:24:13.302Z,1000.99
2018-05-16T08:25:13.325Z,1000.95
2018-05-16T08:26:13.346Z,1001.01
2018-05-16T08:27:13.365Z,1001
2018-05-16T08:28:13.395Z,1000.99
2018-05-16T08:29:13.414Z,1001.02
2018-05-16T08:30:13.435Z,1001.04
2018-05-16T08:31:13.503Z,1001.06
2018-05-16T08:32:13.473Z,1001.08
2018-05-16T08:33:13.499Z,1001.09
2018-05-16T08:34:13.518Z,1001.08
2018-05-16T08:35:13.535Z,1001.05
2018-05-16T08:36:13.562Z,1001.05
2018-05-16T08:37:13.580Z,1001.02
2018-05-16T08:38:13.604Z,1001.04
2018-05-16T08:39:13.625Z,1001.06
2018-05-16T08:40:13.641Z,1001.09
2018-05-16T08:41:13.668Z,1001.07
2018-05-16T08:42:13.689Z,1001.04
2018-05-16T08:43:13.705Z,1001.06
2018-05-16T08:44:13.727Z,1001.06
2018-05-16T08:45:13.749Z,1001.07
2018-05-16T08:46:13.774Z,1001.11
2018-05-16T08:47:13.797Z,1001.1
2018-05-16T08:48:13.818Z,1001.13
2018-05-16T08:49:13.840Z,1001.06
2018-05-16T08:50:13.858Z,1001.08
2018-05-16T08:51:13.881Z,1001.11
2018-05-16T08:52:13.903Z,1001.14
2018-05-16T08:53:13.918Z,1001.15
2018-05-16T08:54:13.941Z,1001.15
2018-05-16T08:55:13.962Z,1001.17
2018-05-16T08:56:13.988Z,1001.19
2018-05-16T08:57:14.004Z,1001.2
2018-05-16T08:58:14.037Z,1001.21
2018-05-16T08:59:14.053Z,1001.18
2018-05-16T09:00:14.074Z,1001.16
2018-05-16T09:01:14.160Z,1001.11
2018-05-16T09:02:14.117Z,1001.11
2018-05-16T09:03:14.140Z,1001.1
2018-05-16T09:04:14.156Z,1001.1
2018-05-16T09:05:14.177Z,1001.07
2018-05-16T09:06:14.198Z,1001.13
2018-05-16T09:07:14.219Z,1001.12
2018-05-16T09:08:14.240Z,1001.14
2018-05-16T09:09:14.267Z,1001.12
2018-05-16T09:10:14.289Z,1001.13
2018-05-16T09:11:14.306Z,1001.12
2018-05-16T09:12:14.348Z,1001.13
2018-05-16T09:13:14.353Z,1001.15
2018-05-16T09:14:14.444Z,1001.11
2018-05-16T09:15:14.397Z,1001.07
2018-05-16T09:16:14.438Z,1001.05
2018-05-16T09:17:14.523Z,1001.02
2018-05-16T09:18:14.459Z,1001.09
2018-05-16T09:19:14.486Z,1001.05
2018-05-16T09:20:14.503Z,1001.04
2018-05-16T09:21:14.525Z,1001.07
2018-05-16T09:22:14.546Z,1001.06
2018-05-16T09:23:14.567Z,1001.06
2018-05-16T09:24:14.590Z,1001.09
2018-05-16T09:25:14.700Z,1001.11
2018-05-16T09:26:14.629Z,1001.16
2018-05-16T09:27:14.650Z,1001.11
2018-05-16T09:28:14.679Z,1001.13
2018-05-16T09:29:14.697Z,1001.21
2018-05-16T09:30:14.720Z,1001.17
2018-05-16T09:31:14.741Z,1001.19
2018-05-16T09:32:14.759Z,1001.2
2018-05-16T09:33:14.780Z,1001.24
2018-05-16T09:34:14.801Z,1001.22
2018-05-16T09:35:14.828Z,1001.2
2018-05-16T09:36:14.844Z,1001.19
2018-05-16T09:37:14.871Z,1001.17
2018-05-16T09:38:14.892Z,1001.13
2018-05-16T09:39:14.909Z,1001.12
2018-05-16T09:40:14.994Z,1001.12
2018-05-16T09:41:14.963Z,1001.09
2018-05-16T09:42:14.980Z,1001.13
2018-05-16T09:43:14.999Z,1001.1
2018-05-16T09:44:15.016Z,1001.07
2018-05-16T09:45:15.040Z,1001.03
2018-05-16T09:46:15.106Z,1001.09
2018-05-16T09:47:15.082Z,1001.05
2018-05-16T09:48:15.187Z,1001.07
2018-05-16T09:49:15.130Z,1001.07
2018-05-16T09:50:15.153Z,1001.1
2018-05-16T09:51:15.169Z,1001
2018-05-16T09:52:15.394Z,1001.03
2018-05-16T09:53:15.219Z,1001.07
2018-05-16T09:54:15.238Z,1001.09
2018-05-16T09:55:15.255Z,1001.07
2018-05-16T09:56:15.282Z,1001.07
2018-05-16T09:57:15.304Z,1001.1
2018-05-16T09:58:15.327Z,1001.09
2018-05-16T09:59:15.343Z,1001.07
2018-05-16T10:00:15.364Z,1001.05
2018-05-16T10:01:15.392Z,1001.05
2018-05-16T10:02:15.413Z,1001.09
2018-05-16T10:03:15.431Z,1001.1
2018-05-16T10:04:15.454Z,1001.07
2018-05-16T10:05:15.475Z,1001.09
2018-05-16T10:06:15.501Z,1001.08
2018-05-16T10:07:15.517Z,1001.07
2018-05-16T10:08:15.544Z,1001.1
2018-05-16T10:09:15.561Z,1001.1
2018-05-16T10:10:15.589Z,1001.05
2018-05-16T10:11:15.610Z,1001.08
2018-05-16T10:12:15.633Z,1001.07
2018-05-16T10:13:15.653Z,1001.03
2018-05-16T10:14:15.676Z,1001.01
2018-05-16T10:15:15.748Z,1001.06
2018-05-16T10:16:15.724Z,1001.05
2018-05-16T10:17:15.741Z,1001.06
2018-05-16T10:18:15.762Z,1001.06
2018-05-16T10:19:15.786Z,1001.09
2018-05-16T10:20:15.842Z,1001.08
2018-05-16T10:21:15.825Z,1001.09
2018-05-16T10:22:15.853Z,1001.06
2018-05-16T10:23:15.870Z,1001.05
2018-05-16T10:24:15.896Z,1001.06
2018-05-16T10:25:15.921Z,1001.06
2018-05-16T10:26:15.937Z,1001.05
2018-05-16T10:27:15.959Z,1001.08
2018-05-16T10:28:15.980Z,1001.1
2018-05-16T10:29:16.004Z,1001.11
2018-05-16T10:30:16.028Z,1001.11
2018-05-16T10:31:16.046Z,1001.14
2018-05-16T10:32:16.068Z,1001.14
2018-05-16T10:33:16.096Z,1001.14
2018-05-16T10:34:16.113Z,1001.13
2018-05-16T10:35:16.135Z,1001.16
2018-05-16T10:36:16.165Z,1001.16
2018-05-16T10:37:16.180Z,1001.18
2018-05-16T10:38:16.202Z,1001.15
2018-05-16T10:39:16.238Z,1001.1
2018-05-16T10:40:16.246Z,1001.16
2018-05-16T10:41:16.291Z,1001.14
2018-05-16T10:42:16.289Z,1001.13
2018-05-16T10:43:16.312Z,1001.15
2018-05-16T10:44:16.335Z,1001.14
2018-05-16T10:45:16.356Z,1001.1
2018-05-16T10:46:16.384Z,1001.12
2018-05-16T10:47:16.402Z,1001.14
2018-05-16T10:48:16.423Z,1001.18
2018-05-16T10:49:16.446Z,1001.14
2018-05-16T10:50:16.467Z,1001.14
2018-05-16T10:51:16.490Z,1001.15
2018-05-16T10:52:16.562Z,1001.16
2018-05-16T10:53:16.539Z,1001.14
2018-05-16T10:54:16.558Z,1001.16
2018-05-16T10:55:16.579Z,1001.14
2018-05-16T10:56:16.606Z,1001.19
2018-05-16T10:57:16.636Z,1001.16
2018-05-16T10:58:16.645Z,1001.16
2018-05-16T10:59:16.672Z,1001.11
2018-05-16T11:00:16.697Z,1001.12
2018-05-16T11:01:16.713Z,1001.13
2018-05-16T11:02:16.737Z,1001.13
2018-05-16T11:03:16.770Z,1001.1
2018-05-16T11:04:16.785Z,1001.13
2018-05-16T11:05:16.810Z,1001.11
2018-05-16T11:06:16.831Z,1001.12
2018-05-16T11:07:16.853Z,1001.11
2018-05-16T11:08:16.871Z,1001.13
2018-05-16T11:09:16.899Z,1001.1
2018-05-16T11:10:16.922Z,1001.12
2018-05-16T11:11:16.941Z,1001.08
2018-05-16T11:12:16.963Z,1001.09
2018-05-16T11:13:16.986Z,1001.08
2018-05-16T11:14:17.009Z,1001.02
2018-05-16T11:15:17.037Z,1001.02
2018-05-16T11:16:17.055Z,1001
2018-05-16T11:17:17.082Z,1001.02
2018-05-16T11:18:17.106Z,1001.03
2018-05-16T11:19:17.129Z,1000.99
2018-05-16T11:20:17.147Z,1000.96
2018-05-16T11:21:17.185Z,1000.98
2018-05-16T11:22:17.198Z,1000.95
2018-05-16T11:23:17.217Z,1000.94
2018-05-16T11:24:17.241Z,1000.89
2018-05-16T11:25:17.265Z,1000.89
2018-05-16T11:26:17.300Z,1000.91
2018-05-16T11:27:17.316Z,1000.88
2018-05-16T11:28:17.334Z,1000.91
2018-05-16T11:29:17.358Z,1000.84
2018-05-16T11:30:17.380Z,1000.88
2018-05-16T11:31:17.405Z,1000.85
2018-05-16T11:32:17.437Z,1000.87
2018-05-16T11:33:17.453Z,1000.87
2018-05-16T11:34:17.481Z,1000.83
2018-05-16T11:35:17.500Z,1000.94
2018-05-16T11:36:17.525Z,1000.9
2018-05-16T11:37:17.552Z,1000.87
2018-05-16T11:38:17.571Z,1000.9
2018-05-16T11:39:17.601Z,1000.87
2018-05-16T11:40:17.619Z,1000.84
2018-05-16T11:41:17.648Z,1000.79
2018-05-16T11:42:17.675Z,1000.8
2018-05-16T11:43:17.699Z,1000.84
2018-05-16T11:44:17.717Z,1000.82
2018-05-16T11:45:17.744Z,1000.86
2018-05-16T11:46:17.764Z,1000.79
2018-05-16T11:47:17.789Z,1000.83
2018-05-16T11:48:17.815Z,1000.85
2018-05-16T11:49:17.837Z,1000.86
2018-05-16T11:50:17.863Z,1000.84
2018-05-16T11:51:17.884Z,1000.83
2018-05-16T11:52:17.916Z,1000.83
2018-05-16T11:53:17.933Z,1000.83
2018-05-16T11:54:17.962Z,1000.81
2018-05-16T11:55:17.986Z,1000.77
2018-05-16T11:56:18.012Z,1000.78
2018-05-16T11:57:18.036Z,1000.76
2018-05-16T11:58:18.061Z,1000.73
2018-05-16T11:59:18.111Z,1000.75
2018-05-16T12:00:18.103Z,1000.73
2018-05-16T12:01:18.133Z,1000.74
2018-05-16T12:02:18.153Z,1000.76
2018-05-16T12:03:18.177Z,1000.8
2018-05-16T12:04:18.207Z,1000.77
2018-05-16T12:05:18.226Z,1000.81
2018-05-16T12:06:18.253Z,1000.77
2018-05-16T12:07:18.273Z,1000.76
2018-05-16T12:08:18.306Z,1000.82
2018-05-16T12:09:18.413Z,1000.76